sensor_id;sensor_type;location;lat;lon;timestamp;temperature;humidity
68977;SHT31;56029;52.568;13.588;2023-11-21T00:02:21;7.03;99.99
68977;SHT31;56029;52.568;13.588;2023-11-21T00:04:48;6.98;99.99
68977;SHT31;56029;52.568;13.588;2023-11-21T00:07:13;7.02;99.99
68977;SHT31;56029;52.568;13.588;2023-11-21T00:09:39;7.02;99.99
68977;SHT31;56029;52.568;13.588;2023-11-21T00:12:04;6.96;99.99
68977;SHT31;56029;52.568;13.588;2023-11-21T00:14:30;6.99;99.99
68977;SHT31;56029;52.568;13.588;2023-11-21T00:16:55;6.99;99.99
68977;SHT31;56029;52.568;13.588;2023-11-21T00:19:21;6.98;99.99
68977;SHT31;56029;52.568;13.588;2023-11-21T00:21:46;6.99;99.99
68977;SHT31;56029;52.568;13.588;2023-11-21T00:24:12;6.94;99.99
68977;SHT31;56029;52.568;13.588;2023-11-21T00:26:37;6.87;99.99
68977;SHT31;56029;52.568;13.588;2023-11-21T00:29:03;6.88;99.99
68977;SHT31;56029;52.568;13.588;2023-11-21T00:31:29;6.80;99.99
68977;SHT31;56029;52.568;13.588;2023-11-21T00:33:54;6.71;99.99
68977;SHT31;56029;52.568;13.588;2023-11-21T00:36:20;6.75;99.99
68977;SHT31;56029;52.568;13.588;2023-11-21T00:38:45;6.68;99.99
68977;SHT31;56029;52.568;13.588;2023-11-21T00:41:11;6.71;99.99
68977;SHT31;56029;52.568;13.588;2023-11-21T00:43:36;6.71;99.99
68977;SHT31;56029;52.568;13.588;2023-11-21T00:46:05;6.50;99.99
68977;SHT31;56029;52.568;13.588;2023-11-21T00:48:31;6.61;99.99
68977;SHT31;56029;52.568;13.588;2023-11-21T00:50:56;6.54;99.99
68977;SHT31;56029;52.568;13.588;2023-11-21T00:53:22;6.48;99.99
68977;SHT31;56029;52.568;13.588;2023-11-21T00:55:47;6.38;99.99
68977;SHT31;56029;52.568;13.588;2023-11-21T00:58:13;6.44;99.99
68977;SHT31;56029;52.568;13.588;2023-11-21T01:00:38;6.29;99.99
68977;SHT31;56029;52.568;13.588;2023-11-21T01:03:04;6.30;99.99
68977;SHT31;56029;52.568;13.588;2023-11-21T01:05:29;6.27;99.99
68977;SHT31;56029;52.568;13.588;2023-11-21T01:07:55;6.24;99.99
68977;SHT31;56029;52.568;13.588;2023-11-21T01:10:21;6.26;99.99
68977;SHT31;56029;52.568;13.588;2023-11-21T01:12:46;6.23;99.99
68977;SHT31;56029;52.568;13.588;2023-11-21T01:15:12;6.13;99.99
68977;SHT31;56029;52.568;13.588;2023-11-21T01:17:37;5.98;99.99
68977;SHT31;56029;52.568;13.588;2023-11-21T01:20:03;6.07;99.99
68977;SHT31;56029;52.568;13.588;2023-11-21T01:22:29;5.96;99.99
68977;SHT31;56029;52.568;13.588;2023-11-21T01:24:57;6.01;99.99
68977;SHT31;56029;52.568;13.588;2023-11-21T01:27:23;6.05;99.99
68977;SHT31;56029;52.568;13.588;2023-11-21T01:29:48;5.94;99.99
68977;SHT31;56029;52.568;13.588;2023-11-21T01:32:14;5.96;99.99
68977;SHT31;56029;52.568;13.588;2023-11-21T01:34:39;5.95;99.99
68977;SHT31;56029;52.568;13.588;2023-11-21T01:37:05;5.88;99.99
68977;SHT31;56029;52.568;13.588;2023-11-21T01:39:31;5.89;99.99
68977;SHT31;56029;52.568;13.588;2023-11-21T01:41:57;5.85;99.99
68977;SHT31;56029;52.568;13.588;2023-11-21T01:44:23;5.79;99.99
68977;SHT31;56029;52.568;13.588;2023-11-21T01:46:48;5.62;99.99
68977;SHT31;56029;52.568;13.588;2023-11-21T01:49:14;5.69;99.99
68977;SHT31;56029;52.568;13.588;2023-11-21T01:51:41;5.71;99.99
68977;SHT31;56029;52.568;13.588;2023-11-21T01:54:08;5.74;99.99
68977;SHT31;56029;52.568;13.588;2023-11-21T01:56:34;5.74;99.99
68977;SHT31;56029;52.568;13.588;2023-11-21T01:59:03;5.59;99.99
68977;SHT31;56029;52.568;13.588;2023-11-21T02:01:28;5.61;99.99
68977;SHT31;56029;52.568;13.588;2023-11-21T02:03:54;5.69;99.99
68977;SHT31;56029;52.568;13.588;2023-11-21T02:06:19;5.65;99.99
68977;SHT31;56029;52.568;13.588;2023-11-21T02:08:45;5.74;99.99
68977;SHT31;56029;52.568;13.588;2023-11-21T02:11:11;5.76;99.99
68977;SHT31;56029;52.568;13.588;2023-11-21T02:13:36;5.78;99.99
68977;SHT31;56029;52.568;13.588;2023-11-21T02:16:02;5.65;99.99
68977;SHT31;56029;52.568;13.588;2023-11-21T02:18:27;5.59;99.99
68977;SHT31;56029;52.568;13.588;2023-11-21T02:20:53;5.50;99.99
68977;SHT31;56029;52.568;13.588;2023-11-21T02:23:18;5.61;99.99
68977;SHT31;56029;52.568;13.588;2023-11-21T02:25:44;5.50;99.99
68977;SHT31;56029;52.568;13.588;2023-11-21T02:28:10;5.62;99.99
68977;SHT31;56029;52.568;13.588;2023-11-21T02:30:38;5.62;99.99
68977;SHT31;56029;52.568;13.588;2023-11-21T02:33:04;5.47;99.99
68977;SHT31;56029;52.568;13.588;2023-11-21T02:35:29;5.57;99.99
68977;SHT31;56029;52.568;13.588;2023-11-21T02:37:55;5.43;99.99
68977;SHT31;56029;52.568;13.588;2023-11-21T02:40:20;5.36;99.99
68977;SHT31;56029;52.568;13.588;2023-11-21T02:42:47;5.47;99.99
68977;SHT31;56029;52.568;13.588;2023-11-21T02:45:16;5.50;99.99
68977;SHT31;56029;52.568;13.588;2023-11-21T02:47:41;5.48;99.99
68977;SHT31;56029;52.568;13.588;2023-11-21T02:50:07;5.51;99.99
68977;SHT31;56029;52.568;13.588;2023-11-21T02:52:33;5.51;99.99
68977;SHT31;56029;52.568;13.588;2023-11-21T02:54:59;5.47;99.99
68977;SHT31;56029;52.568;13.588;2023-11-21T02:57:24;5.52;99.99
68977;SHT31;56029;52.568;13.588;2023-11-21T02:59:50;5.44;99.99
68977;SHT31;56029;52.568;13.588;2023-11-21T03:02:18;5.44;99.99
68977;SHT31;56029;52.568;13.588;2023-11-21T03:04:44;5.44;99.99
68977;SHT31;56029;52.568;13.588;2023-11-21T03:07:09;5.43;99.99
68977;SHT31;56029;52.568;13.588;2023-11-21T03:09:35;5.38;99.99
68977;SHT31;56029;52.568;13.588;2023-11-21T03:12:01;5.41;99.99
68977;SHT31;56029;52.568;13.588;2023-11-21T03:14:27;5.38;99.99
68977;SHT31;56029;52.568;13.588;2023-11-21T03:16:52;5.27;99.99
68977;SHT31;56029;52.568;13.588;2023-11-21T03:19:18;5.17;99.99
68977;SHT31;56029;52.568;13.588;2023-11-21T03:21:43;5.20;99.99
68977;SHT31;56029;52.568;13.588;2023-11-21T03:24:09;5.23;99.99
68977;SHT31;56029;52.568;13.588;2023-11-21T03:26:34;5.22;99.99
68977;SHT31;56029;52.568;13.588;2023-11-21T03:29:00;5.15;99.97
68977;SHT31;56029;52.568;13.588;2023-11-21T03:31:25;5.28;99.99
68977;SHT31;56029;52.568;13.588;2023-11-21T03:33:51;5.19;99.71
68977;SHT31;56029;52.568;13.588;2023-11-21T03:36:16;5.16;99.75
68977;SHT31;56029;52.568;13.588;2023-11-21T03:38:42;5.19;99.82
68977;SHT31;56029;52.568;13.588;2023-11-21T03:41:07;5.05;98.65
68977;SHT31;56029;52.568;13.588;2023-11-21T03:43:33;5.16;98.44
68977;SHT31;56029;52.568;13.588;2023-11-21T03:48:36;5.10;97.77
68977;SHT31;56029;52.568;13.588;2023-11-21T03:51:12;5.06;98.00
68977;SHT31;56029;52.568;13.588;2023-11-21T03:53:50;5.01;98.05
68977;SHT31;56029;52.568;13.588;2023-11-21T03:56:40;5.01;98.04
68977;SHT31;56029;52.568;13.588;2023-11-21T03:59:06;5.03;98.05
68977;SHT31;56029;52.568;13.588;2023-11-21T04:01:31;4.93;98.18
68977;SHT31;56029;52.568;13.588;2023-11-21T04:04:00;4.97;97.61
68977;SHT31;56029;52.568;13.588;2023-11-21T04:06:25;4.96;97.64
68977;SHT31;56029;52.568;13.588;2023-11-21T04:08:51;4.90;96.93
68977;SHT31;56029;52.568;13.588;2023-11-21T04:11:16;4.90;96.80
68977;SHT31;56029;52.568;13.588;2023-11-21T04:13:42;4.82;96.92
68977;SHT31;56029;52.568;13.588;2023-11-21T04:16:08;4.82;97.22
68977;SHT31;56029;52.568;13.588;2023-11-21T04:18:38;4.78;97.37
68977;SHT31;56029;52.568;13.588;2023-11-21T04:21:07;4.75;97.29
68977;SHT31;56029;52.568;13.588;2023-11-21T04:23:33;4.75;97.74
68977;SHT31;56029;52.568;13.588;2023-11-21T04:26:00;4.71;97.06
68977;SHT31;56029;52.568;13.588;2023-11-21T04:28:25;4.73;97.08
68977;SHT31;56029;52.568;13.588;2023-11-21T04:30:51;4.76;97.41
68977;SHT31;56029;52.568;13.588;2023-11-21T04:33:17;4.76;97.46
68977;SHT31;56029;52.568;13.588;2023-11-21T04:35:42;4.79;97.30
68977;SHT31;56029;52.568;13.588;2023-11-21T04:38:08;4.82;97.43
68977;SHT31;56029;52.568;13.588;2023-11-21T04:40:33;4.83;97.18
68977;SHT31;56029;52.568;13.588;2023-11-21T04:42:59;4.79;97.95
68977;SHT31;56029;52.568;13.588;2023-11-21T04:45:24;4.75;97.67
68977;SHT31;56029;52.568;13.588;2023-11-21T04:47:50;4.71;98.17
68977;SHT31;56029;52.568;13.588;2023-11-21T04:50:15;4.78;97.98
68977;SHT31;56029;52.568;13.588;2023-11-21T04:52:44;4.79;97.65
68977;SHT31;56029;52.568;13.588;2023-11-21T04:55:09;4.83;98.06
68977;SHT31;56029;52.568;13.588;2023-11-21T04:57:39;4.78;97.71
68977;SHT31;56029;52.568;13.588;2023-11-21T05:00:05;4.76;98.06
68977;SHT31;56029;52.568;13.588;2023-11-21T05:02:31;4.66;98.51
68977;SHT31;56029;52.568;13.588;2023-11-21T05:04:57;4.78;98.03
68977;SHT31;56029;52.568;13.588;2023-11-21T05:07:22;4.76;98.56
68977;SHT31;56029;52.568;13.588;2023-11-21T05:09:48;4.82;98.58
68977;SHT31;56029;52.568;13.588;2023-11-21T05:12:13;4.86;98.87
68977;SHT31;56029;52.568;13.588;2023-11-21T05:14:39;4.83;98.98
68977;SHT31;56029;52.568;13.588;2023-11-21T05:17:04;4.82;98.25
68977;SHT31;56029;52.568;13.588;2023-11-21T05:19:30;4.79;98.37
68977;SHT31;56029;52.568;13.588;2023-11-21T05:21:56;4.80;98.46
68977;SHT31;56029;52.568;13.588;2023-11-21T05:24:21;4.75;98.64
68977;SHT31;56029;52.568;13.588;2023-11-21T05:26:47;4.75;98.01
68977;SHT31;56029;52.568;13.588;2023-11-21T05:29:12;4.73;98.15
68977;SHT31;56029;52.568;13.588;2023-11-21T05:31:38;4.71;98.19
68977;SHT31;56029;52.568;13.588;2023-11-21T05:34:03;4.72;98.30
68977;SHT31;56029;52.568;13.588;2023-11-21T05:36:29;4.72;97.95
68977;SHT31;56029;52.568;13.588;2023-11-21T05:38:55;4.68;97.86
68977;SHT31;56029;52.568;13.588;2023-11-21T05:41:20;4.68;98.01
68977;SHT31;56029;52.568;13.588;2023-11-21T05:43:46;4.65;97.71
68977;SHT31;56029;52.568;13.588;2023-11-21T05:46:11;4.68;98.03
68977;SHT31;56029;52.568;13.588;2023-11-21T05:48:37;4.68;98.54
68977;SHT31;56029;52.568;13.588;2023-11-21T05:51:04;4.66;98.15
68977;SHT31;56029;52.568;13.588;2023-11-21T05:53:30;4.66;97.60
68977;SHT31;56029;52.568;13.588;2023-11-21T05:55:55;4.66;98.00
68977;SHT31;56029;52.568;13.588;2023-11-21T05:58:21;4.72;98.32
68977;SHT31;56029;52.568;13.588;2023-11-21T06:00:47;4.71;98.37
68977;SHT31;56029;52.568;13.588;2023-11-21T06:03:12;4.72;98.44
68977;SHT31;56029;52.568;13.588;2023-11-21T06:05:38;4.59;97.86
68977;SHT31;56029;52.568;13.588;2023-11-21T06:08:03;4.61;97.79
68977;SHT31;56029;52.568;13.588;2023-11-21T06:10:29;4.55;98.35
68977;SHT31;56029;52.568;13.588;2023-11-21T06:12:54;4.58;98.36
68977;SHT31;56029;52.568;13.588;2023-11-21T06:15:20;4.65;98.59
68977;SHT31;56029;52.568;13.588;2023-11-21T06:17:46;4.57;97.96
68977;SHT31;56029;52.568;13.588;2023-11-21T06:20:12;4.62;98.32
68977;SHT31;56029;52.568;13.588;2023-11-21T06:22:39;4.61;98.39
68977;SHT31;56029;52.568;13.588;2023-11-21T06:25:19;4.58;98.32
68977;SHT31;56029;52.568;13.588;2023-11-21T06:27:47;4.55;98.28
68977;SHT31;56029;52.568;13.588;2023-11-21T06:30:14;4.55;97.59
68977;SHT31;56029;52.568;13.588;2023-11-21T06:32:43;4.61;97.95
68977;SHT31;56029;52.568;13.588;2023-11-21T06:35:08;4.55;98.22
68977;SHT31;56029;52.568;13.588;2023-11-21T06:37:34;4.57;98.20
68977;SHT31;56029;52.568;13.588;2023-11-21T06:40:00;4.55;98.10
68977;SHT31;56029;52.568;13.588;2023-11-21T06:42:26;4.62;97.89
68977;SHT31;56029;52.568;13.588;2023-11-21T06:44:52;4.62;97.81
68977;SHT31;56029;52.568;13.588;2023-11-21T06:47:18;4.59;97.77
68977;SHT31;56029;52.568;13.588;2023-11-21T06:49:43;4.61;98.20
68977;SHT31;56029;52.568;13.588;2023-11-21T06:52:09;4.61;98.27
68977;SHT31;56029;52.568;13.588;2023-11-21T06:54:36;4.54;98.13
68977;SHT31;56029;52.568;13.588;2023-11-21T06:57:02;4.52;97.22
68977;SHT31;56029;52.568;13.588;2023-11-21T06:59:28;4.58;97.47
68977;SHT31;56029;52.568;13.588;2023-11-21T07:01:54;4.62;98.02
68977;SHT31;56029;52.568;13.588;2023-11-21T07:04:20;4.54;97.69
68977;SHT31;56029;52.568;13.588;2023-11-21T07:06:45;4.58;97.90
68977;SHT31;56029;52.568;13.588;2023-11-21T07:09:11;4.54;97.82
68977;SHT31;56029;52.568;13.588;2023-11-21T07:11:37;4.48;97.23
68977;SHT31;56029;52.568;13.588;2023-11-21T07:14:03;4.41;96.62
68977;SHT31;56029;52.568;13.588;2023-11-21T07:16:28;4.41;96.58
68977;SHT31;56029;52.568;13.588;2023-11-21T07:18:54;4.27;96.98
68977;SHT31;56029;52.568;13.588;2023-11-21T07:21:19;4.36;97.28
68977;SHT31;56029;52.568;13.588;2023-11-21T07:23:45;4.37;97.39
68977;SHT31;56029;52.568;13.588;2023-11-21T07:26:10;4.42;96.96
68977;SHT31;56029;52.568;13.588;2023-11-21T07:28:36;4.40;95.83
68977;SHT31;56029;52.568;13.588;2023-11-21T07:31:01;4.38;96.41
68977;SHT31;56029;52.568;13.588;2023-11-21T07:33:27;4.36;95.53
68977;SHT31;56029;52.568;13.588;2023-11-21T07:35:52;4.36;96.54
68977;SHT31;56029;52.568;13.588;2023-11-21T07:38:18;4.33;95.92
68977;SHT31;56029;52.568;13.588;2023-11-21T07:40:44;4.22;95.96
68977;SHT31;56029;52.568;13.588;2023-11-21T07:43:09;4.22;96.14
68977;SHT31;56029;52.568;13.588;2023-11-21T07:45:35;4.28;96.56
68977;SHT31;56029;52.568;13.588;2023-11-21T07:48:00;4.41;96.35
68977;SHT31;56029;52.568;13.588;2023-11-21T07:50:26;4.31;95.67
68977;SHT31;56029;52.568;13.588;2023-11-21T07:52:51;4.20;96.34
68977;SHT31;56029;52.568;13.588;2023-11-21T07:55:17;4.36;96.48
68977;SHT31;56029;52.568;13.588;2023-11-21T07:57:43;4.28;94.94
68977;SHT31;56029;52.568;13.588;2023-11-21T08:00:08;4.44;95.99
68977;SHT31;56029;52.568;13.588;2023-11-21T08:02:34;4.34;95.79
68977;SHT31;56029;52.568;13.588;2023-11-21T08:05:00;4.45;96.31
68977;SHT31;56029;52.568;13.588;2023-11-21T08:07:26;4.49;96.42
68977;SHT31;56029;52.568;13.588;2023-11-21T08:09:51;4.41;96.02
68977;SHT31;56029;52.568;13.588;2023-11-21T08:12:17;4.37;96.12
68977;SHT31;56029;52.568;13.588;2023-11-21T08:14:42;4.37;96.28
68977;SHT31;56029;52.568;13.588;2023-11-21T08:17:08;4.31;96.61
68977;SHT31;56029;52.568;13.588;2023-11-21T08:19:33;4.13;96.12
68977;SHT31;56029;52.568;13.588;2023-11-21T08:21:59;4.17;96.78
68977;SHT31;56029;52.568;13.588;2023-11-21T08:24:25;4.24;97.44
68977;SHT31;56029;52.568;13.588;2023-11-21T08:26:50;4.17;97.33
68977;SHT31;56029;52.568;13.588;2023-11-21T08:29:16;4.04;97.67
68977;SHT31;56029;52.568;13.588;2023-11-21T08:31:42;4.01;97.15
68977;SHT31;56029;52.568;13.588;2023-11-21T08:34:07;3.99;98.08
68977;SHT31;56029;52.568;13.588;2023-11-21T08:36:33;4.03;97.24
68977;SHT31;56029;52.568;13.588;2023-11-21T08:38:58;4.07;97.63
68977;SHT31;56029;52.568;13.588;2023-11-21T08:41:24;4.07;97.20
68977;SHT31;56029;52.568;13.588;2023-11-21T08:43:50;3.99;96.37
68977;SHT31;56029;52.568;13.588;2023-11-21T08:46:16;4.00;96.93
68977;SHT31;56029;52.568;13.588;2023-11-21T08:48:44;3.97;96.61
68977;SHT31;56029;52.568;13.588;2023-11-21T08:51:10;4.10;96.49
68977;SHT31;56029;52.568;13.588;2023-11-21T08:53:36;4.00;96.37
68977;SHT31;56029;52.568;13.588;2023-11-21T08:56:01;3.97;96.43
68977;SHT31;56029;52.568;13.588;2023-11-21T08:58:27;4.03;96.49
68977;SHT31;56029;52.568;13.588;2023-11-21T09:00:53;4.01;96.22
68977;SHT31;56029;52.568;13.588;2023-11-21T09:03:18;4.01;96.41
68977;SHT31;56029;52.568;13.588;2023-11-21T09:05:44;4.14;96.78
68977;SHT31;56029;52.568;13.588;2023-11-21T09:08:09;4.13;97.28
68977;SHT31;56029;52.568;13.588;2023-11-21T09:10:35;4.14;97.50
68977;SHT31;56029;52.568;13.588;2023-11-21T09:13:01;4.13;96.13
68977;SHT31;56029;52.568;13.588;2023-11-21T09:15:30;4.16;96.11
68977;SHT31;56029;52.568;13.588;2023-11-21T09:17:55;4.21;96.43
68977;SHT31;56029;52.568;13.588;2023-11-21T09:20:21;4.14;96.44
68977;SHT31;56029;52.568;13.588;2023-11-21T09:22:46;4.16;96.00
68977;SHT31;56029;52.568;13.588;2023-11-21T09:25:12;4.24;95.99
68977;SHT31;56029;52.568;13.588;2023-11-21T09:27:37;4.22;95.87
68977;SHT31;56029;52.568;13.588;2023-11-21T09:30:04;4.20;96.30
68977;SHT31;56029;52.568;13.588;2023-11-21T09:32:29;4.16;96.08
68977;SHT31;56029;52.568;13.588;2023-11-21T09:34:55;4.28;96.35
68977;SHT31;56029;52.568;13.588;2023-11-21T09:37:21;4.16;96.62
68977;SHT31;56029;52.568;13.588;2023-11-21T09:39:46;4.10;96.21
68977;SHT31;56029;52.568;13.588;2023-11-21T09:42:13;4.04;96.06
68977;SHT31;56029;52.568;13.588;2023-11-21T09:45:03;3.96;96.10
68977;SHT31;56029;52.568;13.588;2023-11-21T09:47:35;3.99;97.02
68977;SHT31;56029;52.568;13.588;2023-11-21T09:50:04;3.91;96.77
68977;SHT31;56029;52.568;13.588;2023-11-21T09:52:31;3.93;96.16
68977;SHT31;56029;52.568;13.588;2023-11-21T09:54:57;4.08;96.00
68977;SHT31;56029;52.568;13.588;2023-11-21T09:57:24;3.89;96.30
68977;SHT31;56029;52.568;13.588;2023-11-21T09:59:54;3.91;96.17
68977;SHT31;56029;52.568;13.588;2023-11-21T10:02:20;3.85;96.37
68977;SHT31;56029;52.568;13.588;2023-11-21T10:04:47;3.86;96.45
68977;SHT31;56029;52.568;13.588;2023-11-21T10:07:14;3.89;97.18
68977;SHT31;56029;52.568;13.588;2023-11-21T10:09:41;3.83;96.68
68977;SHT31;56029;52.568;13.588;2023-11-21T10:12:11;3.89;97.22
68977;SHT31;56029;52.568;13.588;2023-11-21T10:14:41;3.97;97.13
68977;SHT31;56029;52.568;13.588;2023-11-21T10:17:08;4.10;97.43
68977;SHT31;56029;52.568;13.588;2023-11-21T10:19:36;3.85;96.01
68977;SHT31;56029;52.568;13.588;2023-11-21T10:22:02;3.83;96.31
68977;SHT31;56029;52.568;13.588;2023-11-21T10:24:28;3.83;96.27
68977;SHT31;56029;52.568;13.588;2023-11-21T10:26:53;3.78;97.09
68977;SHT31;56029;52.568;13.588;2023-11-21T10:29:22;3.65;97.64
68977;SHT31;56029;52.568;13.588;2023-11-21T10:31:50;3.70;97.49
68977;SHT31;56029;52.568;13.588;2023-11-21T10:34:19;3.85;97.79
68977;SHT31;56029;52.568;13.588;2023-11-21T10:37:12;3.72;97.24
68977;SHT31;56029;52.568;13.588;2023-11-21T10:39:43;3.75;97.11
68977;SHT31;56029;52.568;13.588;2023-11-21T10:42:09;3.69;96.73
68977;SHT31;56029;52.568;13.588;2023-11-21T10:44:34;3.66;96.65
68977;SHT31;56029;52.568;13.588;2023-11-21T10:47:00;3.56;96.59
68977;SHT31;56029;52.568;13.588;2023-11-21T10:49:26;3.62;97.05
68977;SHT31;56029;52.568;13.588;2023-11-21T10:51:55;3.70;97.23
68977;SHT31;56029;52.568;13.588;2023-11-21T10:54:25;3.69;97.61
68977;SHT31;56029;52.568;13.588;2023-11-21T10:56:56;3.75;97.91
68977;SHT31;56029;52.568;13.588;2023-11-21T10:59:22;3.75;98.24
68977;SHT31;56029;52.568;13.588;2023-11-21T11:01:48;3.65;98.64
68977;SHT31;56029;52.568;13.588;2023-11-21T11:04:15;3.68;98.77
68977;SHT31;56029;52.568;13.588;2023-11-21T11:06:43;3.73;98.46
68977;SHT31;56029;52.568;13.588;2023-11-21T11:09:12;3.63;98.89
68977;SHT31;56029;52.568;13.588;2023-11-21T11:11:39;3.58;98.68
68977;SHT31;56029;52.568;13.588;2023-11-21T11:14:05;3.66;98.89
68977;SHT31;56029;52.568;13.588;2023-11-21T11:16:31;3.49;99.30
68977;SHT31;56029;52.568;13.588;2023-11-21T11:18:57;3.54;98.95
68977;SHT31;56029;52.568;13.588;2023-11-21T11:22:03;3.70;98.43
68977;SHT31;56029;52.568;13.588;2023-11-21T11:32:40;3.56;96.82
68977;SHT31;56029;52.568;13.588;2023-11-21T11:35:41;3.62;96.92
68977;SHT31;56029;52.568;13.588;2023-11-21T11:38:07;3.66;97.25
68977;SHT31;56029;52.568;13.588;2023-11-21T11:40:41;3.52;96.99
68977;SHT31;56029;52.568;13.588;2023-11-21T11:43:09;3.59;96.79
68977;SHT31;56029;52.568;13.588;2023-11-21T11:45:35;3.59;96.97
68977;SHT31;56029;52.568;13.588;2023-11-21T11:48:01;3.68;97.04
68977;SHT31;56029;52.568;13.588;2023-11-21T11:50:27;3.55;96.98
68977;SHT31;56029;52.568;13.588;2023-11-21T11:52:53;3.59;97.01
68977;SHT31;56029;52.568;13.588;2023-11-21T11:55:21;3.62;96.63
68977;SHT31;56029;52.568;13.588;2023-11-21T11:57:51;3.59;97.75
68977;SHT31;56029;52.568;13.588;2023-11-21T12:00:18;3.59;96.58
68977;SHT31;56029;52.568;13.588;2023-11-21T12:02:45;3.60;96.95
68977;SHT31;56029;52.568;13.588;2023-11-21T12:05:12;3.65;96.97
68977;SHT31;56029;52.568;13.588;2023-11-21T12:07:46;3.66;97.29
68977;SHT31;56029;52.568;13.588;2023-11-21T12:10:13;3.70;97.64
68977;SHT31;56029;52.568;13.588;2023-11-21T12:12:42;3.62;97.90
68977;SHT31;56029;52.568;13.588;2023-11-21T12:15:08;3.72;97.82
68977;SHT31;56029;52.568;13.588;2023-11-21T12:17:34;3.69;97.88
68977;SHT31;56029;52.568;13.588;2023-11-21T12:20:02;3.63;98.50
68977;SHT31;56029;52.568;13.588;2023-11-21T12:22:28;3.66;98.47
68977;SHT31;56029;52.568;13.588;2023-11-21T12:24:54;3.60;98.93
68977;SHT31;56029;52.568;13.588;2023-11-21T12:27:20;3.66;99.52
68977;SHT31;56029;52.568;13.588;2023-11-21T12:29:46;3.58;99.73
68977;SHT31;56029;52.568;13.588;2023-11-21T12:32:11;3.49;99.60
68977;SHT31;56029;52.568;13.588;2023-11-21T12:34:37;3.42;99.60
68977;SHT31;56029;52.568;13.588;2023-11-21T12:37:03;3.49;99.62
68977;SHT31;56029;52.568;13.588;2023-11-21T12:39:28;3.32;99.99
68977;SHT31;56029;52.568;13.588;2023-11-21T12:41:54;3.31;99.83
68977;SHT31;56029;52.568;13.588;2023-11-21T12:44:20;3.34;99.72
68977;SHT31;56029;52.568;13.588;2023-11-21T12:46:45;3.35;99.98
68977;SHT31;56029;52.568;13.588;2023-11-21T12:49:11;3.17;99.99
68977;SHT31;56029;52.568;13.588;2023-11-21T12:51:37;3.22;99.99
68977;SHT31;56029;52.568;13.588;2023-11-21T12:54:03;3.27;99.99
68977;SHT31;56029;52.568;13.588;2023-11-21T12:56:28;3.34;99.99
68977;SHT31;56029;52.568;13.588;2023-11-21T12:58:54;3.46;99.90
68977;SHT31;56029;52.568;13.588;2023-11-21T13:01:20;3.48;99.99
68977;SHT31;56029;52.568;13.588;2023-11-21T13:03:46;3.46;99.09
68977;SHT31;56029;52.568;13.588;2023-11-21T13:06:12;3.43;99.62
68977;SHT31;56029;52.568;13.588;2023-11-21T13:08:38;3.39;98.28
68977;SHT31;56029;52.568;13.588;2023-11-21T13:11:03;3.43;98.08
68977;SHT31;56029;52.568;13.588;2023-11-21T13:13:29;3.36;98.00
68977;SHT31;56029;52.568;13.588;2023-11-21T13:15:56;3.29;97.70
68977;SHT31;56029;52.568;13.588;2023-11-21T13:18:23;3.32;97.46
68977;SHT31;56029;52.568;13.588;2023-11-21T13:20:49;3.22;97.19
68977;SHT31;56029;52.568;13.588;2023-11-21T13:23:15;3.28;97.22
68977;SHT31;56029;52.568;13.588;2023-11-21T13:25:40;3.25;98.13
68977;SHT31;56029;52.568;13.588;2023-11-21T13:28:06;3.25;97.79
68977;SHT31;56029;52.568;13.588;2023-11-21T13:30:32;3.21;96.99
68977;SHT31;56029;52.568;13.588;2023-11-21T13:33:01;3.20;96.45
68977;SHT31;56029;52.568;13.588;2023-11-21T13:35:28;3.03;96.06
68977;SHT31;56029;52.568;13.588;2023-11-21T13:37:54;3.07;96.75
68977;SHT31;56029;52.568;13.588;2023-11-21T13:40:20;2.99;97.93
68977;SHT31;56029;52.568;13.588;2023-11-21T13:42:46;3.01;98.11
68977;SHT31;56029;52.568;13.588;2023-11-21T13:45:12;2.94;97.29
68977;SHT31;56029;52.568;13.588;2023-11-21T13:47:38;2.96;97.14
68977;SHT31;56029;52.568;13.588;2023-11-21T13:50:04;2.94;97.65
68977;SHT31;56029;52.568;13.588;2023-11-21T13:52:30;2.91;98.23
68977;SHT31;56029;52.568;13.588;2023-11-21T13:54:55;3.00;97.93
68977;SHT31;56029;52.568;13.588;2023-11-21T13:57:21;2.97;97.93
68977;SHT31;56029;52.568;13.588;2023-11-21T13:59:46;2.84;98.89
68977;SHT31;56029;52.568;13.588;2023-11-21T14:02:12;2.67;98.19
68977;SHT31;56029;52.568;13.588;2023-11-21T14:04:37;2.62;98.37
68977;SHT31;56029;52.568;13.588;2023-11-21T14:07:03;2.53;97.87
68977;SHT31;56029;52.568;13.588;2023-11-21T14:09:28;2.56;98.34
68977;SHT31;56029;52.568;13.588;2023-11-21T14:11:55;2.64;98.48
68977;SHT31;56029;52.568;13.588;2023-11-21T14:14:22;2.50;98.15
68977;SHT31;56029;52.568;13.588;2023-11-21T14:16:48;2.57;98.41
68977;SHT31;56029;52.568;13.588;2023-11-21T14:19:13;2.64;98.80
68977;SHT31;56029;52.568;13.588;2023-11-21T14:21:39;2.67;98.39
68977;SHT31;56029;52.568;13.588;2023-11-21T14:24:04;2.46;99.09
68977;SHT31;56029;52.568;13.588;2023-11-21T14:26:30;2.39;98.94
68977;SHT31;56029;52.568;13.588;2023-11-21T14:28:56;2.41;98.95
68977;SHT31;56029;52.568;13.588;2023-11-21T14:31:21;2.39;98.78
68977;SHT31;56029;52.568;13.588;2023-11-21T14:33:47;2.28;98.64
68977;SHT31;56029;52.568;13.588;2023-11-21T14:36:12;2.38;98.61
68977;SHT31;56029;52.568;13.588;2023-11-21T14:38:38;2.29;98.70
68977;SHT31;56029;52.568;13.588;2023-11-21T14:41:03;2.26;98.82
68977;SHT31;56029;52.568;13.588;2023-11-21T14:43:29;2.24;98.44
68977;SHT31;56029;52.568;13.588;2023-11-21T14:45:54;2.25;98.65
68977;SHT31;56029;52.568;13.588;2023-11-21T14:48:20;2.22;98.42
68977;SHT31;56029;52.568;13.588;2023-11-21T14:50:45;2.25;97.90
68977;SHT31;56029;52.568;13.588;2023-11-21T14:53:12;2.21;97.98
68977;SHT31;56029;52.568;13.588;2023-11-21T14:55:38;2.21;98.35
68977;SHT31;56029;52.568;13.588;2023-11-21T14:58:04;2.25;97.78
68977;SHT31;56029;52.568;13.588;2023-11-21T15:00:30;2.18;97.65
68977;SHT31;56029;52.568;13.588;2023-11-21T15:02:55;2.20;97.63
68977;SHT31;56029;52.568;13.588;2023-11-21T15:05:21;2.24;97.57
68977;SHT31;56029;52.568;13.588;2023-11-21T15:07:46;2.20;97.01
68977;SHT31;56029;52.568;13.588;2023-11-21T15:10:12;2.22;97.03
68977;SHT31;56029;52.568;13.588;2023-11-21T15:12:37;2.20;97.07
68977;SHT31;56029;52.568;13.588;2023-11-21T15:15:03;2.12;96.91
68977;SHT31;56029;52.568;13.588;2023-11-21T15:17:28;2.12;97.28
68977;SHT31;56029;52.568;13.588;2023-11-21T15:19:54;2.21;96.99
68977;SHT31;56029;52.568;13.588;2023-11-21T15:22:20;2.07;96.44
68977;SHT31;56029;52.568;13.588;2023-11-21T15:24:46;1.93;96.64
68977;SHT31;56029;52.568;13.588;2023-11-21T15:27:12;2.01;96.51
68977;SHT31;56029;52.568;13.588;2023-11-21T15:29:41;2.07;96.56
68977;SHT31;56029;52.568;13.588;2023-11-21T15:32:08;2.00;96.41
68977;SHT31;56029;52.568;13.588;2023-11-21T15:34:34;1.94;96.37
68977;SHT31;56029;52.568;13.588;2023-11-21T15:37:00;1.93;95.92